Pays
Station

 

Conditions  météo  pour  Nevers  -  France    France

  
11 °C
    
 
 

METAR pour Nevers :

LFQG 141800Z AUTO 11006KT 080V150 7000 OVC005 11/10 Q1024

 

Voici le bulletin pour Nevers - France.
 
Le bulletin a été fait il y a 7 heures et 36 minutes, à 18:00 UTC .
Le vent soufflait à la vitesse de 3.1 mètres par seconde de Est/Sud-est (110°), variant entre Est (080°) et Sud/Sud-est (150°).
 
La température était de 11 °C, avec un point de rosée à 10 °C.
La pression atmosphérique était de 1024 hPa.
L'humidité relative était de 93.5%.
 
Le ciel était nuageux à partir d'une hauteur de 152 mètres
 
La visibilité globale était de 7.0 kilomètres.
 

 
 
 

Pays :   A   B   C   D   E   F   G   H   I   J   K   L   M   N   O   P   Q   R   S   T   U   V   W   Y   Z

 

Partenaires :  Info Météo avec Met'info
Météo Marine avec MeteoMarine.net
Infos Site  |  Infos Légales  |  Crédits  |  Confidentialité
Contactez-nous  |  Ajouter aux favoris
© 2013-2018 METAR - Tous droits réservés